Time,TemperatureF,DewpointF,PressureIn,WindDirection,WindDirectionDegrees,WindSpeedMPH,WindSpeedGustMPH,Humidity,HourlyPrecipIn,Conditions,Clouds,dailyrainin,SoftwareType,DateUTC
2013-02-17 00:00:00,12.4,8.0,30.13,WSW,257,1.0,3.0,82,0.00,,---,0.00,VWS V14.00,2013-02-17 05:00:00,
2013-02-17 00:02:00,12.4,8.0,30.13,WSW,257,0.0,2.0,82,0.00,,---,0.00,VWS V14.00,2013-02-17 05:02:00,
2013-02-17 00:07:00,12.3,7.9,30.13,WSW,257,0.0,2.0,82,0.00,,---,0.00,VWS V14.00,2013-02-17 05:07:00,
2013-02-17 00:12:00,12.3,7.9,30.13,WSW,257,0.0,2.0,82,0.00,,---,0.00,VWS V14.00,2013-02-17 05:12:00,
2013-02-17 00:17:00,12.3,8.1,30.13,WSW,257,1.0,3.0,83,0.00,,---,0.00,VWS V14.00,2013-02-17 05:17:00,
2013-02-17 00:22:00,12.4,8.2,30.13,WSW,257,0.0,3.0,83,0.00,,---,0.00,VWS V14.00,2013-02-17 05:22:00,
2013-02-17 00:27:00,12.5,8.3,30.13,WSW,248,2.0,4.0,83,0.00,,---,0.00,VWS V14.00,2013-02-17 05:27:00,
2013-02-17 00:32:00,12.6,8.4,30.13,WSW,255,1.0,3.0,83,0.00,,---,0.00,VWS V14.00,2013-02-17 05:32:00,
2013-02-17 00:37:00,12.6,8.4,30.13,WSW,255,3.0,4.0,83,0.00,,---,0.00,VWS V14.00,2013-02-17 05:37:00,
2013-02-17 00:42:00,12.6,8.4,30.13,West,277,2.0,5.0,83,0.00,,---,0.00,VWS V14.00,2013-02-17 05:42:00,
2013-02-17 00:47:00,12.7,8.5,30.13,West,268,1.0,5.0,83,0.00,,---,0.00,VWS V14.00,2013-02-17 05:47:00,
2013-02-17 00:52:00,12.8,8.6,30.13,WSW,249,4.0,6.0,83,0.00,,---,0.00,VWS V14.00,2013-02-17 05:52:00,
2013-02-17 00:57:00,12.8,8.6,30.13,West,262,2.0,6.0,83,0.00,,---,0.00,VWS V14.00,2013-02-17 05:57:00,
2013-02-17 01:02:00,12.8,8.6,30.13,West,263,3.0,6.0,83,0.00,,---,0.00,VWS V14.00,2013-02-17 06:02:00,
2013-02-17 01:07:00,12.8,8.6,30.13,WSW,257,0.0,7.0,83,0.00,,---,0.00,VWS V14.00,2013-02-17 06:07:00,
2013-02-17 01:13:00,12.8,8.6,30.13,WSW,252,4.0,7.0,83,0.00,,---,0.00,VWS V14.00,2013-02-17 06:13:00,
2013-02-17 01:18:00,12.8,8.9,30.13,WSW,254,2.0,7.0,84,0.00,,---,0.00,VWS V14.00,2013-02-17 06:18:00,
2013-02-17 01:23:00,12.9,9.0,30.14,WSW,255,1.0,7.0,84,0.00,,---,0.00,VWS V14.00,2013-02-17 06:23:00,
2013-02-17 01:28:00,13.0,9.1,30.14,WSW,240,1.0,7.0,84,0.00,,---,0.00,VWS V14.00,2013-02-17 06:28:00,
2013-02-17 01:33:00,13.1,9.2,30.14,West,280,2.0,4.0,84,0.00,,---,0.00,VWS V14.00,2013-02-17 06:33:00,
2013-02-17 01:38:00,13.2,9.3,30.13,West,271,2.0,5.0,84,0.00,,---,0.00,VWS V14.00,2013-02-17 06:38:00,
2013-02-17 01:43:00,13.3,9.4,30.14,West,271,2.0,7.0,84,0.00,,---,0.00,VWS V14.00,2013-02-17 06:43:00,
2013-02-17 01:48:00,13.3,9.1,30.13,West,278,2.0,7.0,83,0.00,,---,0.00,VWS V14.00,2013-02-17 06:48:00,
2013-02-17 01:53:00,13.3,9.1,30.13,West,264,0.0,7.0,83,0.00,,---,0.00,VWS V14.00,2013-02-17 06:53:00,
2013-02-17 01:58:00,13.2,9.3,30.14,West,265,1.0,7.0,84,0.00,,---,0.00,VWS V14.00,2013-02-17 06:58:00,
2013-02-17 02:03:00,13.1,9.2,30.14,West,271,4.0,4.0,84,0.00,,---,0.00,VWS V14.00,2013-02-17 07:03:00,
2013-02-17 02:08:00,13.1,9.2,30.14,West,272,1.0,4.0,84,0.00,,---,0.00,VWS V14.00,2013-02-17 07:08:00,
2013-02-17 02:13:00,13.1,9.4,30.14,WNW,283,4.0,5.0,85,0.00,,---,0.00,VWS V14.00,2013-02-17 07:13:00,
2013-02-17 02:18:00,13.2,9.6,30.14,WNW,288,2.0,5.0,85,0.00,,---,0.00,VWS V14.00,2013-02-17 07:18:00,
2013-02-17 02:23:00,13.3,9.6,30.14,West,277,2.0,5.0,85,0.00,,---,0.00,VWS V14.00,2013-02-17 07:23:00,
2013-02-17 02:28:00,13.4,9.7,30.14,WNW,288,1.0,5.0,85,0.00,,---,0.00,VWS V14.00,2013-02-17 07:28:00,
2013-02-17 02:34:00,13.4,10.0,30.14,WNW,288,0.0,2.0,86,0.00,,---,0.00,VWS V14.00,2013-02-17 07:34:00,
2013-02-17 02:39:00,13.6,10.2,30.14,WNW,292,1.0,4.0,86,0.00,,---,0.00,VWS V14.00,2013-02-17 07:39:00,
2013-02-17 02:44:00,13.7,10.3,30.14,WNW,291,0.0,4.0,86,0.00,,---,0.00,VWS V14.00,2013-02-17 07:44:00,
2013-02-17 02:49:00,14.0,10.9,30.15,West,279,2.0,5.0,87,0.00,,---,0.00,VWS V14.00,2013-02-17 07:49:00,
2013-02-17 02:54:00,14.3,10.9,30.15,West,280,0.0,5.0,86,0.00,,---,0.00,VWS V14.00,2013-02-17 07:54:00,
2013-02-17 02:59:00,14.6,11.2,30.14,WNW,292,1.0,5.0,86,0.00,,---,0.00,VWS V14.00,2013-02-17 07:59:00,
2013-02-17 03:04:00,14.8,11.4,30.14,West,277,1.0,5.0,86,0.00,,---,0.00,VWS V14.00,2013-02-17 08:04:00,
2013-02-17 03:09:00,15.0,11.6,30.14,WNW,293,2.0,5.0,86,0.00,,---,0.00,VWS V14.00,2013-02-17 08:09:00,
2013-02-17 03:14:00,15.1,11.7,30.14,WNW,294,2.0,5.0,86,0.00,,---,0.00,VWS V14.00,2013-02-17 08:14:00,
2013-02-17 03:19:00,15.2,11.5,30.14,WNW,297,0.0,5.0,85,0.00,,---,0.00,VWS V14.00,2013-02-17 08:19:00,
2013-02-17 03:24:00,15.3,11.6,30.14,WNW,299,1.0,5.0,85,0.00,,---,0.00,VWS V14.00,2013-02-17 08:24:00,
2013-02-17 03:29:00,15.4,11.4,30.14,NNW,327,7.0,8.0,84,0.00,,---,0.00,VWS V14.00,2013-02-17 08:29:00,
2013-02-17 03:34:00,15.4,11.2,30.14,NNW,341,5.0,8.0,83,0.00,,---,0.00,VWS V14.00,2013-02-17 08:34:00,
2013-02-17 03:39:00,15.3,10.8,30.14,NNW,327,6.0,8.0,82,0.00,,---,0.00,VWS V14.00,2013-02-17 08:39:00,
2013-02-17 03:44:00,15.4,11.2,30.14,NNW,338,1.0,8.0,83,0.00,,---,0.00,VWS V14.00,2013-02-17 08:44:00,
2013-02-17 03:49:00,15.5,11.3,30.14,NNW,333,0.0,8.0,83,0.00,,---,0.00,VWS V14.00,2013-02-17 08:49:00,
2013-02-17 03:54:00,15.5,11.3,30.14,NW,312,2.0,8.0,83,0.00,,---,0.00,VWS V14.00,2013-02-17 08:54:00,
2013-02-17 04:00:00,15.4,11.2,30.14,NW,321,1.0,8.0,83,0.00,,---,0.00,VWS V14.00,2013-02-17 09:00:00,
2013-02-17 04:05:00,15.4,11.2,30.14,NW,322,2.0,4.0,83,0.00,,---,0.00,VWS V14.00,2013-02-17 09:05:00,
2013-02-17 04:10:00,15.4,11.2,30.15,WNW,300,4.0,6.0,83,0.00,,---,0.00,VWS V14.00,2013-02-17 09:10:00,
2013-02-17 04:15:00,15.3,11.1,30.15,NW,311,0.0,6.0,83,0.00,,---,0.00,VWS V14.00,2013-02-17 09:15:00,
2013-02-17 04:20:00,15.3,11.1,30.15,NW,310,2.0,6.0,83,0.00,,---,0.00,VWS V14.00,2013-02-17 09:20:00,
2013-02-17 04:25:00,15.2,11.0,30.15,NW,325,0.0,7.0,83,0.00,,---,0.00,VWS V14.00,2013-02-17 09:25:00,
2013-02-17 04:30:00,15.2,11.0,30.16,NW,324,0.0,0.0,83,0.00,,---,0.00,VWS V14.00,2013-02-17 09:30:00,
2013-02-17 04:35:00,15.1,10.9,30.15,NNW,334,2.0,6.0,83,0.00,,---,0.00,VWS V14.00,2013-02-17 09:35:00,
2013-02-17 04:40:00,14.9,10.4,30.16,NNW,332,4.0,6.0,82,0.00,,---,0.00,VWS V14.00,2013-02-17 09:40:00,
2013-02-17 04:45:00,14.8,10.3,30.16,NNW,336,6.0,6.0,82,0.00,,---,0.00,VWS V14.00,2013-02-17 09:45:00,
2013-02-17 04:50:00,14.5,10.0,30.15,NNW,339,1.0,6.0,82,0.00,,---,0.00,VWS V14.00,2013-02-17 09:50:00,
2013-02-17 04:55:00,14.4,10.2,30.16,NNW,338,1.0,6.0,83,0.00,,---,0.00,VWS V14.00,2013-02-17 09:55:00,
2013-02-17 05:00:00,14.2,10.0,30.16,NNW,336,1.0,4.0,83,0.00,,---,0.00,VWS V14.00,2013-02-17 10:00:00,
2013-02-17 05:05:00,14.1,9.9,30.16,NW,321,2.0,5.0,83,0.00,,---,0.00,VWS V14.00,2013-02-17 10:05:00,
2013-02-17 05:10:00,14.0,9.8,30.16,NW,320,1.0,5.0,83,0.00,,---,0.00,VWS V14.00,2013-02-17 10:10:00,
2013-02-17 05:15:00,13.9,9.7,30.17,NW,310,1.0,5.0,83,0.00,,---,0.00,VWS V14.00,2013-02-17 10:15:00,
2013-02-17 05:20:00,14.0,10.1,30.17,NW,311,0.0,5.0,84,0.00,,---,0.00,VWS V14.00,2013-02-17 10:20:00,
2013-02-17 05:26:00,14.0,10.1,30.16,NW,310,2.0,5.0,84,0.00,,---,0.00,VWS V14.00,2013-02-17 10:26:00,
2013-02-17 05:31:00,14.0,10.1,30.17,NW,311,0.0,1.0,84,0.00,,---,0.00,VWS V14.00,2013-02-17 10:31:00,
2013-02-17 05:36:00,14.1,10.2,30.17,NW,311,0.0,1.0,84,0.00,,---,0.00,VWS V14.00,2013-02-17 10:36:00,
2013-02-17 05:41:00,14.1,10.2,30.17,NW,311,1.0,2.0,84,0.00,,---,0.00,VWS V14.00,2013-02-17 10:41:00,
2013-02-17 05:46:00,14.1,10.2,30.17,NW,310,2.0,2.0,84,0.00,,---,0.00,VWS V14.00,2013-02-17 10:46:00,
2013-02-17 05:51:00,14.1,10.4,30.17,NW,310,0.0,2.0,85,0.00,,---,0.00,VWS V14.00,2013-02-17 10:51:00,
2013-02-17 05:56:00,14.1,10.4,30.18,WNW,290,2.0,4.0,85,0.00,,---,0.00,VWS V14.00,2013-02-17 10:56:00,
2013-02-17 06:01:00,14.1,10.4,30.18,West,277,0.0,1.0,85,0.00,,---,0.00,VWS V14.00,2013-02-17 11:01:00,
2013-02-17 06:06:00,14.1,10.4,30.18,West,276,0.0,2.0,85,0.00,,---,0.00,VWS V14.00,2013-02-17 11:06:00,
2013-02-17 06:11:00,14.0,10.3,30.18,West,277,0.0,2.0,85,0.00,,---,0.00,VWS V14.00,2013-02-17 11:11:00,
2013-02-17 06:16:00,13.9,10.0,30.18,West,277,0.0,2.0,84,0.00,,---,0.00,VWS V14.00,2013-02-17 11:16:00,
2013-02-17 06:21:00,13.7,9.8,30.19,West,277,0.0,4.0,84,0.00,,---,0.00,VWS V14.00,2013-02-17 11:21:00,
2013-02-17 06:26:00,13.6,9.7,30.19,West,277,0.0,4.0,84,0.00,,---,0.00,VWS V14.00,2013-02-17 11:26:00,
2013-02-17 06:31:00,13.4,9.5,30.19,West,276,0.0,2.0,84,0.00,,---,0.00,VWS V14.00,2013-02-17 11:31:00,
2013-02-17 06:36:00,13.2,9.6,30.19,West,277,0.0,2.0,85,0.00,,---,0.00,VWS V14.00,2013-02-17 11:36:00,
2013-02-17 06:41:00,13.0,9.4,30.20,West,277,2.0,2.0,85,0.00,,---,0.00,VWS V14.00,2013-02-17 11:41:00,
2013-02-17 06:46:00,12.9,9.2,30.20,West,276,2.0,2.0,85,0.00,,---,0.00,VWS V14.00,2013-02-17 11:46:00,
2013-02-17 06:51:00,12.8,9.1,30.20,West,276,0.0,2.0,85,0.00,,---,0.00,VWS V14.00,2013-02-17 11:51:00,
2013-02-17 06:56:00,12.6,9.0,30.20,West,276,0.0,2.0,85,0.00,,---,0.00,VWS V14.00,2013-02-17 11:56:00,
2013-02-17 07:01:00,12.5,9.1,30.20,West,276,2.0,2.0,86,0.00,,---,0.00,VWS V14.00,2013-02-17 12:01:00,
2013-02-17 07:06:00,12.3,8.9,30.20,West,276,0.0,2.0,86,0.00,,---,0.00,VWS V14.00,2013-02-17 12:06:00,
2013-02-17 07:12:00,12.3,8.9,30.20,West,276,1.0,4.0,86,0.00,,---,0.00,VWS V14.00,2013-02-17 12:12:00,
2013-02-17 07:17:00,12.2,8.8,30.20,West,276,0.0,4.0,86,0.00,,---,0.00,VWS V14.00,2013-02-17 12:17:00,
2013-02-17 07:22:00,12.1,9.0,30.20,West,277,0.0,4.0,87,0.00,,---,0.00,VWS V14.00,2013-02-17 12:22:00,
2013-02-17 07:27:00,12.0,8.9,30.20,West,275,0.0,4.0,87,0.00,,---,0.00,VWS V14.00,2013-02-17 12:27:00,
2013-02-17 07:32:00,12.0,8.9,30.21,West,276,0.0,0.0,87,0.00,,---,0.00,VWS V14.00,2013-02-17 12:32:00,
2013-02-17 07:37:00,12.0,8.9,30.21,West,276,0.0,1.0,87,0.00,,---,0.00,VWS V14.00,2013-02-17 12:37:00,
2013-02-17 07:42:00,11.9,8.8,30.21,West,277,0.0,1.0,87,0.00,,---,0.00,VWS V14.00,2013-02-17 12:42:00,
2013-02-17 07:47:00,11.9,8.8,30.21,West,276,0.0,1.0,87,0.00,,---,0.00,VWS V14.00,2013-02-17 12:47:00,
2013-02-17 07:52:00,11.8,8.7,30.21,West,276,0.0,1.0,87,0.00,,---,0.00,VWS V14.00,2013-02-17 12:52:00,
2013-02-17 07:57:00,11.8,8.7,30.21,West,275,0.0,1.0,87,0.00,,---,0.00,VWS V14.00,2013-02-17 12:57:00,
2013-02-17 08:02:00,11.9,8.8,30.22,West,276,0.0,1.0,87,0.00,,---,0.00,VWS V14.00,2013-02-17 13:02:00,
2013-02-17 08:07:00,11.9,9.0,30.22,West,276,0.0,4.0,88,0.00,,---,0.00,VWS V14.00,2013-02-17 13:07:00,
2013-02-17 08:12:00,12.1,9.2,30.23,West,277,0.0,4.0,88,0.00,,---,0.00,VWS V14.00,2013-02-17 13:12:00,
2013-02-17 08:17:00,12.2,9.3,30.23,West,275,0.0,5.0,88,0.00,,---,0.00,VWS V14.00,2013-02-17 13:17:00,
2013-02-17 08:22:00,12.5,9.6,30.23,West,275,1.0,5.0,88,0.00,,---,0.00,VWS V14.00,2013-02-17 13:22:00,
2013-02-17 08:27:00,12.7,9.8,30.23,West,275,0.0,5.0,88,0.00,,---,0.00,VWS V14.00,2013-02-17 13:27:00,
2013-02-17 08:32:00,12.9,10.0,30.23,West,275,0.0,1.0,88,0.00,,---,0.00,VWS V14.00,2013-02-17 13:32:00,
2013-02-17 08:37:00,13.2,10.3,30.23,West,275,0.0,4.0,88,0.00,,---,0.00,VWS V14.00,2013-02-17 13:37:00,
2013-02-17 08:42:00,13.5,10.6,30.23,WNW,284,1.0,5.0,88,0.00,,---,0.00,VWS V14.00,2013-02-17 13:42:00,
2013-02-17 08:47:00,13.8,10.9,30.23,NW,311,0.0,5.0,88,0.00,,---,0.00,VWS V14.00,2013-02-17 13:47:00,
2013-02-17 08:52:00,14.0,10.9,30.23,NW,311,1.0,5.0,87,0.00,,---,0.00,VWS V14.00,2013-02-17 13:52:00,
2013-02-17 08:57:00,14.3,11.1,30.23,NW,311,1.0,5.0,87,0.00,,---,0.00,VWS V14.00,2013-02-17 13:57:00,
2013-02-17 09:03:00,14.5,11.3,30.23,WNW,293,4.0,4.0,87,0.00,,---,0.00,VWS V14.00,2013-02-17 14:03:00,
2013-02-17 09:08:00,14.8,11.6,30.24,WNW,286,4.0,5.0,87,0.00,,---,0.00,VWS V14.00,2013-02-17 14:08:00,
2013-02-17 09:13:00,15.2,12.0,30.24,WNW,290,0.0,5.0,87,0.00,,---,0.00,VWS V14.00,2013-02-17 14:13:00,
2013-02-17 09:18:00,15.5,12.1,30.24,WNW,289,0.0,5.0,86,0.00,,---,0.00,VWS V14.00,2013-02-17 14:18:00,
2013-02-17 09:23:00,15.8,12.1,30.24,WNW,290,0.0,5.0,85,0.00,,---,0.00,VWS V14.00,2013-02-17 14:23:00,
2013-02-17 09:28:00,16.2,12.2,30.24,WNW,289,1.0,5.0,84,0.00,,---,0.00,VWS V14.00,2013-02-17 14:28:00,
2013-02-17 09:33:00,16.5,12.2,30.24,WNW,290,0.0,1.0,83,0.00,,---,0.00,VWS V14.00,2013-02-17 14:33:00,
2013-02-17 09:38:00,16.9,12.4,30.24,WNW,290,0.0,4.0,82,0.00,,---,0.00,VWS V14.00,2013-02-17 14:38:00,
2013-02-17 09:43:00,17.2,12.4,30.24,WNW,290,0.0,4.0,81,0.00,,---,0.00,VWS V14.00,2013-02-17 14:43:00,
2013-02-17 09:48:00,17.7,12.9,30.24,WNW,290,0.0,4.0,81,0.00,,---,0.00,VWS V14.00,2013-02-17 14:48:00,
2013-02-17 09:53:00,17.9,12.5,30.25,NW,319,2.0,5.0,79,0.00,,---,0.00,VWS V14.00,2013-02-17 14:53:00,
2013-02-17 09:58:00,18.0,12.0,30.24,NW,321,2.0,5.0,77,0.00,,---,0.00,VWS V14.00,2013-02-17 14:58:00,
2013-02-17 10:03:00,18.1,11.2,30.24,NW,323,4.0,5.0,74,0.00,,---,0.00,VWS V14.00,2013-02-17 15:03:00,
2013-02-17 10:08:00,18.2,11.6,30.24,NW,319,1.0,5.0,75,0.00,,---,0.00,VWS V14.00,2013-02-17 15:08:00,
2013-02-17 10:13:00,18.4,11.5,30.25,NNW,329,4.0,6.0,74,0.00,,---,0.00,VWS V14.00,2013-02-17 15:13:00,
2013-02-17 10:18:00,18.6,10.8,30.25,NW,325,2.0,6.0,71,0.00,,---,0.00,VWS V14.00,2013-02-17 15:18:00,
2013-02-17 10:23:00,18.9,11.1,30.25,WNW,293,1.0,6.0,71,0.00,,---,0.00,VWS V14.00,2013-02-17 15:23:00,
2013-02-17 10:28:00,19.2,11.4,30.25,West,260,3.0,6.0,71,0.00,,---,0.00,VWS V14.00,2013-02-17 15:28:00,
2013-02-17 10:33:00,19.4,11.2,30.25,WNW,288,0.0,4.0,70,0.00,,---,0.00,VWS V14.00,2013-02-17 15:33:00,
2013-02-17 10:39:00,19.7,10.9,30.25,NW,313,1.0,4.0,68,0.00,,---,0.00,VWS V14.00,2013-02-17 15:39:00,
2013-02-17 10:44:00,19.9,11.1,30.25,NW,304,1.0,5.0,68,0.00,,---,0.00,VWS V14.00,2013-02-17 15:44:00,
2013-02-17 10:49:00,20.0,10.1,30.25,NNW,331,4.0,7.0,65,0.00,,---,0.00,VWS V14.00,2013-02-17 15:49:00,
2013-02-17 10:54:00,20.2,9.6,30.25,NW,306,2.0,7.0,63,0.00,,---,0.00,VWS V14.00,2013-02-17 15:54:00,
2013-02-17 10:59:00,20.4,9.5,30.25,NW,306,2.0,7.0,62,0.00,,---,0.00,VWS V14.00,2013-02-17 15:59:00,
2013-02-17 11:04:00,20.7,10.1,30.26,NW,307,0.0,4.0,63,0.00,,---,0.00,VWS V14.00,2013-02-17 16:04:00,
2013-02-17 11:09:00,21.1,10.1,30.26,NW,308,1.0,4.0,62,0.00,,---,0.00,VWS V14.00,2013-02-17 16:09:00,
2013-02-17 11:14:00,21.2,9.9,30.25,WNW,288,0.0,4.0,61,0.00,,---,0.00,VWS V14.00,2013-02-17 16:14:00,
2013-02-17 11:19:00,21.4,10.1,30.25,WNW,302,1.0,4.0,61,0.00,,---,0.00,VWS V14.00,2013-02-17 16:19:00,
2013-02-17 11:24:00,21.6,9.9,30.25,West,262,1.0,5.0,60,0.00,,---,0.00,VWS V14.00,2013-02-17 16:24:00,
2013-02-17 11:29:00,21.7,9.6,30.25,NNW,346,4.0,5.0,59,0.00,,---,0.00,VWS V14.00,2013-02-17 16:29:00,
2013-02-17 11:34:00,22.2,10.1,30.25,NE,42,0.0,4.0,59,0.00,,---,0.00,VWS V14.00,2013-02-17 16:34:00,
2013-02-17 11:39:00,22.9,10.3,30.25,NNE,33,0.0,4.0,58,0.00,,---,0.00,VWS V14.00,2013-02-17 16:39:00,
2013-02-17 11:44:00,23.1,9.8,30.25,WNW,298,0.0,6.0,56,0.00,,---,0.00,VWS V14.00,2013-02-17 16:44:00,
2013-02-17 11:49:00,22.8,9.1,30.25,NW,322,2.0,6.0,55,0.00,,---,0.00,VWS V14.00,2013-02-17 16:49:00,
2013-02-17 11:54:00,22.6,8.9,30.25,West,269,0.0,6.0,55,0.00,,---,0.00,VWS V14.00,2013-02-17 16:54:00,
2013-02-17 11:59:00,22.6,9.3,30.25,SW,234,1.0,6.0,56,0.00,,---,0.00,VWS V14.00,2013-02-17 16:59:00,
2013-02-17 12:04:00,22.5,8.8,30.25,West,263,0.0,8.0,55,0.00,,---,0.00,VWS V14.00,2013-02-17 17:04:00,
2013-02-17 12:10:00,22.5,8.8,30.25,WSW,257,1.0,8.0,55,0.00,,---,0.00,VWS V14.00,2013-02-17 17:10:00,
2013-02-17 12:15:00,22.3,7.8,30.25,WSW,257,1.0,8.0,53,0.00,,---,0.00,VWS V14.00,2013-02-17 17:15:00,
2013-02-17 12:20:00,22.2,8.1,30.25,WSW,257,3.0,8.0,54,0.00,,---,0.00,VWS V14.00,2013-02-17 17:20:00,
2013-02-17 12:25:00,22.4,8.3,30.25,WSW,252,0.0,8.0,54,0.00,,---,0.00,VWS V14.00,2013-02-17 17:25:00,
2013-02-17 12:30:00,22.5,8.4,30.25,WSW,250,0.0,0.0,54,0.00,,---,0.00,VWS V14.00,2013-02-17 17:30:00,
2013-02-17 12:35:00,22.8,8.2,30.24,NW,315,0.0,4.0,53,0.00,,---,0.00,VWS V14.00,2013-02-17 17:35:00,
2013-02-17 12:40:00,23.2,8.6,30.25,NNW,340,0.0,6.0,53,0.00,,---,0.00,VWS V14.00,2013-02-17 17:40:00,
2013-02-17 12:45:00,23.3,8.7,30.25,NW,319,0.0,6.0,53,0.00,,---,0.00,VWS V14.00,2013-02-17 17:45:00,
2013-02-17 12:50:00,23.5,9.7,30.25,NW,312,4.0,6.0,55,0.00,,---,0.00,VWS V14.00,2013-02-17 17:50:00,
2013-02-17 12:55:00,23.8,10.4,30.24,NW,309,1.0,6.0,56,0.00,,---,0.00,VWS V14.00,2013-02-17 17:55:00,
2013-02-17 13:00:00,23.8,10.8,30.24,NW,316,2.0,2.0,57,0.00,,---,0.00,VWS V14.00,2013-02-17 18:00:00,
2013-02-17 13:05:00,23.8,10.8,30.24,NW,316,0.0,2.0,57,0.00,,---,0.00,VWS V14.00,2013-02-17 18:05:00,
2013-02-17 13:10:00,24.0,11.4,30.24,WSW,242,5.0,5.0,58,0.00,,---,0.00,VWS V14.00,2013-02-17 18:10:00,
2013-02-17 13:15:00,24.6,11.9,30.24,West,281,1.0,8.0,58,0.00,,---,0.00,VWS V14.00,2013-02-17 18:15:00,
2013-02-17 13:20:00,24.8,11.3,30.24,WSW,252,2.0,8.0,56,0.00,,---,0.00,VWS V14.00,2013-02-17 18:20:00,
2013-02-17 13:26:00,25.1,11.2,30.23,NNW,331,1.0,8.0,55,0.00,,---,0.00,VWS V14.00,2013-02-17 18:26:00,
2013-02-17 13:31:00,25.4,11.1,30.23,West,273,2.0,4.0,54,0.00,,---,0.00,VWS V14.00,2013-02-17 18:31:00,
2013-02-17 13:36:00,25.3,10.1,30.23,West,281,4.0,7.0,52,0.00,,---,0.00,VWS V14.00,2013-02-17 18:36:00,
2013-02-17 13:41:00,25.4,11.1,30.23,WNW,291,4.0,8.0,54,0.00,,---,0.00,VWS V14.00,2013-02-17 18:41:00,
2013-02-17 13:46:00,25.6,10.9,30.23,WSW,244,3.0,8.0,53,0.00,,---,0.00,VWS V14.00,2013-02-17 18:46:00,
2013-02-17 13:51:00,25.8,10.6,30.23,West,272,1.0,8.0,52,0.00,,---,0.00,VWS V14.00,2013-02-17 18:51:00,
2013-02-17 13:56:00,25.9,10.3,30.23,WNW,292,5.0,11.0,51,0.00,,---,0.00,VWS V14.00,2013-02-17 18:56:00,
2013-02-17 14:01:00,26.1,11.7,30.23,SW,234,2.0,5.0,54,0.00,,---,0.00,VWS V14.00,2013-02-17 19:01:00,
2013-02-17 14:06:00,26.1,10.5,30.23,WSW,237,4.0,11.0,51,0.00,,---,0.00,VWS V14.00,2013-02-17 19:06:00,
2013-02-17 14:11:00,26.0,9.5,30.23,WSW,254,1.0,11.0,49,0.00,,---,0.00,VWS V14.00,2013-02-17 19:11:00,
2013-02-17 14:16:00,26.1,10.5,30.23,SW,236,7.0,11.0,51,0.00,,---,0.00,VWS V14.00,2013-02-17 19:16:00,
2013-02-17 14:21:00,26.3,11.1,30.22,West,261,7.0,11.0,52,0.00,,---,0.00,VWS V14.00,2013-02-17 19:21:00,
2013-02-17 14:26:00,25.8,10.6,30.22,WNW,298,4.0,11.0,52,0.00,,---,0.00,VWS V14.00,2013-02-17 19:26:00,
2013-02-17 14:31:00,25.5,10.8,30.22,West,265,0.0,4.0,53,0.00,,---,0.00,VWS V14.00,2013-02-17 19:31:00,
2013-02-17 14:36:00,25.3,10.6,30.22,NW,320,1.0,5.0,53,0.00,,---,0.00,VWS V14.00,2013-02-17 19:36:00,
2013-02-17 14:41:00,25.3,10.6,30.22,West,275,4.0,5.0,53,0.00,,---,0.00,VWS V14.00,2013-02-17 19:41:00,
2013-02-17 14:46:00,25.5,10.8,30.22,West,274,0.0,5.0,53,0.00,,---,0.00,VWS V14.00,2013-02-17 19:46:00,
2013-02-17 14:52:00,25.4,10.2,30.22,NW,304,0.0,5.0,52,0.00,,---,0.00,VWS V14.00,2013-02-17 19:52:00,
2013-02-17 14:57:00,25.4,10.7,30.22,West,275,2.0,5.0,53,0.00,,---,0.00,VWS V14.00,2013-02-17 19:57:00,
2013-02-17 15:02:00,25.4,10.7,30.22,WNW,299,4.0,4.0,53,0.00,,---,0.00,VWS V14.00,2013-02-17 20:02:00,
2013-02-17 15:07:00,25.3,10.6,30.22,WNW,285,1.0,5.0,53,0.00,,---,0.00,VWS V14.00,2013-02-17 20:07:00,
2013-02-17 15:12:00,25.6,11.3,30.22,NW,325,1.0,5.0,54,0.00,,---,0.00,VWS V14.00,2013-02-17 20:12:00,
2013-02-17 15:17:00,25.8,11.5,30.22,WSW,250,4.0,5.0,54,0.00,,---,0.00,VWS V14.00,2013-02-17 20:17:00,
2013-02-17 15:22:00,26.2,11.8,30.22,West,267,2.0,8.0,54,0.00,,---,0.00,VWS V14.00,2013-02-17 20:22:00,
2013-02-17 15:27:00,26.6,11.4,30.22,West,263,5.0,10.0,52,0.00,,---,0.00,VWS V14.00,2013-02-17 20:27:00,
2013-02-17 15:32:00,27.1,11.8,30.22,WSW,254,7.0,8.0,52,0.00,,---,0.00,VWS V14.00,2013-02-17 20:32:00,
2013-02-17 15:37:00,27.2,11.9,30.22,West,270,1.0,8.0,52,0.00,,---,0.00,VWS V14.00,2013-02-17 20:37:00,
2013-02-17 15:42:00,27.5,11.3,30.22,WNW,302,2.0,8.0,50,0.00,,---,0.00,VWS V14.00,2013-02-17 20:42:00,
2013-02-17 15:47:00,27.3,11.6,30.22,West,263,3.0,10.0,51,0.00,,---,0.00,VWS V14.00,2013-02-17 20:47:00,
2013-02-17 15:53:00,27.5,11.8,30.21,WSW,246,2.0,10.0,51,0.00,,---,0.00,VWS V14.00,2013-02-17 20:53:00,
2013-02-17 15:58:00,27.3,11.6,30.21,WSW,245,1.0,10.0,51,0.00,,---,0.00,VWS V14.00,2013-02-17 20:58:00,
2013-02-17 16:03:00,27.5,11.3,30.21,West,263,0.0,4.0,50,0.00,,---,0.00,VWS V14.00,2013-02-17 21:03:00,
2013-02-17 16:08:00,27.8,11.6,30.21,WSW,241,0.0,4.0,50,0.00,,---,0.00,VWS V14.00,2013-02-17 21:08:00,
2013-02-17 16:13:00,28.2,12.0,30.21,West,269,4.0,4.0,50,0.00,,---,0.00,VWS V14.00,2013-02-17 21:13:00,
2013-02-17 16:18:00,28.4,11.7,30.21,WSW,240,4.0,6.0,49,0.00,,---,0.00,VWS V14.00,2013-02-17 21:18:00,
2013-02-17 16:23:00,28.0,10.9,30.21,West,264,2.0,7.0,48,0.00,,---,0.00,VWS V14.00,2013-02-17 21:23:00,
2013-02-17 16:28:00,27.3,11.1,30.21,West,262,4.0,11.0,50,0.00,,---,0.00,VWS V14.00,2013-02-17 21:28:00,
2013-02-17 16:33:00,26.7,11.0,30.21,West,280,1.0,2.0,51,0.00,,---,0.00,VWS V14.00,2013-02-17 21:33:00,
2013-02-17 16:38:00,26.5,11.3,30.21,WSW,257,0.0,5.0,52,0.00,,---,0.00,VWS V14.00,2013-02-17 21:38:00,
2013-02-17 16:43:00,26.7,11.0,30.21,WSW,245,0.0,8.0,51,0.00,,---,0.00,VWS V14.00,2013-02-17 21:43:00,
2013-02-17 16:48:00,27.1,10.9,30.21,WSW,246,0.0,8.0,50,0.00,,---,0.00,VWS V14.00,2013-02-17 21:48:00,
2013-02-17 16:53:00,27.4,11.7,30.21,WSW,239,1.0,8.0,51,0.00,,---,0.00,VWS V14.00,2013-02-17 21:53:00,
2013-02-17 16:58:00,27.7,11.9,30.21,South,173,1.0,8.0,51,0.00,,---,0.00,VWS V14.00,2013-02-17 21:58:00,
2013-02-17 17:03:00,27.8,12.0,30.21,WSW,248,5.0,7.0,51,0.00,,---,0.00,VWS V14.00,2013-02-17 22:03:00,
2013-02-17 17:08:00,27.6,11.4,30.21,WSW,248,7.0,7.0,50,0.00,,---,0.00,VWS V14.00,2013-02-17 22:08:00,
2013-02-17 17:13:00,27.3,11.6,30.21,WSW,252,4.0,10.0,51,0.00,,---,0.00,VWS V14.00,2013-02-17 22:13:00,
2013-02-17 17:18:00,27.1,11.4,30.21,WSW,252,2.0,10.0,51,0.00,,---,0.00,VWS V14.00,2013-02-17 22:18:00,
2013-02-17 17:23:00,27.0,11.7,30.21,West,269,5.0,10.0,52,0.00,,---,0.00,VWS V14.00,2013-02-17 22:23:00,
2013-02-17 17:29:00,26.8,12.4,30.21,WSW,256,0.0,10.0,54,0.00,,---,0.00,VWS V14.00,2013-02-17 22:29:00,
2013-02-17 17:34:00,26.7,11.9,30.21,SW,233,1.0,5.0,53,0.00,,---,0.00,VWS V14.00,2013-02-17 22:34:00,
2013-02-17 17:39:00,26.5,12.1,30.21,WSW,239,0.0,5.0,54,0.00,,---,0.00,VWS V14.00,2013-02-17 22:39:00,
2013-02-17 17:44:00,26.4,12.4,30.22,WSW,250,1.0,5.0,55,0.00,,---,0.00,VWS V14.00,2013-02-17 22:44:00,
2013-02-17 17:49:00,26.3,12.3,30.22,WSW,238,4.0,7.0,55,0.00,,---,0.00,VWS V14.00,2013-02-17 22:49:00,
2013-02-17 17:54:00,26.2,11.8,30.22,WSW,252,0.0,8.0,54,0.00,,---,0.00,VWS V14.00,2013-02-17 22:54:00,
2013-02-17 17:59:00,26.1,12.2,30.22,WSW,246,0.0,8.0,55,0.00,,---,0.00,VWS V14.00,2013-02-17 22:59:00,
2013-02-17 18:04:00,26.0,12.5,30.21,WSW,257,0.0,5.0,56,0.00,,---,0.00,VWS V14.00,2013-02-17 23:04:00,
2013-02-17 18:09:00,25.9,12.4,30.21,WSW,248,0.0,5.0,56,0.00,,---,0.00,VWS V14.00,2013-02-17 23:09:00,
2013-02-17 18:14:00,25.7,12.6,30.21,WSW,238,5.0,5.0,57,0.00,,---,0.00,VWS V14.00,2013-02-17 23:14:00,
2013-02-17 18:19:00,25.6,12.5,30.22,WSW,238,0.0,5.0,57,0.00,,---,0.00,VWS V14.00,2013-02-17 23:19:00,
2013-02-17 18:24:00,25.4,12.7,30.22,WSW,238,0.0,5.0,58,0.00,,---,0.00,VWS V14.00,2013-02-17 23:24:00,
2013-02-17 18:29:00,25.3,12.6,30.21,WSW,238,0.0,5.0,58,0.00,,---,0.00,VWS V14.00,2013-02-17 23:29:00,
2013-02-17 18:34:00,25.2,12.9,30.21,WSW,238,0.0,1.0,59,0.00,,---,0.00,VWS V14.00,2013-02-17 23:34:00,
2013-02-17 18:39:00,25.1,12.8,30.21,WSW,238,0.0,1.0,59,0.00,,---,0.00,VWS V14.00,2013-02-17 23:39:00,
2013-02-17 18:45:00,24.9,13.0,30.21,WSW,238,0.0,1.0,60,0.00,,---,0.00,VWS V14.00,2013-02-17 23:45:00,
2013-02-17 18:50:00,24.7,13.2,30.21,WSW,238,0.0,1.0,61,0.00,,---,0.00,VWS V14.00,2013-02-17 23:50:00,
2013-02-17 18:55:00,24.6,13.1,30.21,WSW,238,0.0,1.0,61,0.00,,---,0.00,VWS V14.00,2013-02-17 23:55:00,
2013-02-17 19:00:00,24.5,13.0,30.22,WSW,238,0.0,1.0,61,0.00,,---,0.00,VWS V14.00,2013-02-18 00:00:00,
2013-02-17 19:05:00,24.4,13.3,30.21,WSW,238,0.0,0.0,62,0.00,,---,0.00,VWS V14.00,2013-02-18 00:05:00,
2013-02-17 19:10:00,24.2,13.1,30.21,WSW,238,0.0,0.0,62,0.00,,---,0.00,VWS V14.00,2013-02-18 00:10:00,
2013-02-17 19:15:00,24.1,13.3,30.21,WSW,238,0.0,0.0,63,0.00,,---,0.00,VWS V14.00,2013-02-18 00:15:00,
2013-02-17 19:20:00,24.0,13.6,30.21,WSW,238,0.0,0.0,64,0.00,,---,0.00,VWS V14.00,2013-02-18 00:20:00,
2013-02-17 19:25:00,23.9,13.5,30.21,WSW,238,0.0,0.0,64,0.00,,---,0.00,VWS V14.00,2013-02-18 00:25:00,
2013-02-17 19:30:00,23.7,13.0,30.21,WSW,239,0.0,0.0,63,0.00,,---,0.00,VWS V14.00,2013-02-18 00:30:00,
2013-02-17 19:35:00,23.5,13.1,30.21,WSW,238,0.0,0.0,64,0.00,,---,0.00,VWS V14.00,2013-02-18 00:35:00,
2013-02-17 19:40:00,23.4,13.0,30.21,WSW,239,0.0,0.0,64,0.00,,---,0.00,VWS V14.00,2013-02-18 00:40:00,
2013-02-17 19:45:00,23.3,13.3,30.20,WSW,239,0.0,0.0,65,0.00,,---,0.00,VWS V14.00,2013-02-18 00:45:00,
2013-02-17 19:50:00,23.2,13.2,30.21,WSW,238,0.0,0.0,65,0.00,,---,0.00,VWS V14.00,2013-02-18 00:50:00,
2013-02-17 19:55:00,23.1,13.1,30.21,WSW,238,0.0,0.0,65,0.00,,---,0.00,VWS V14.00,2013-02-18 00:55:00,
2013-02-17 20:00:00,23.0,13.0,30.21,WSW,238,0.0,0.0,65,0.00,,---,0.00,VWS V14.00,2013-02-18 01:00:00,
2013-02-17 20:05:00,22.8,13.2,30.21,WSW,238,0.0,0.0,66,0.00,,---,0.00,VWS V14.00,2013-02-18 01:05:00,
2013-02-17 20:11:00,22.7,13.4,30.21,WSW,238,0.0,0.0,67,0.00,,---,0.00,VWS V14.00,2013-02-18 01:11:00,
2013-02-17 20:16:00,22.6,14.0,30.21,WSW,238,0.0,0.0,69,0.00,,---,0.00,VWS V14.00,2013-02-18 01:16:00,
2013-02-17 20:21:00,22.5,14.2,30.20,WSW,238,0.0,2.0,70,0.00,,---,0.00,VWS V14.00,2013-02-18 01:21:00,
2013-02-17 20:26:00,22.4,13.8,30.21,WSW,238,0.0,2.0,69,0.00,,---,0.00,VWS V14.00,2013-02-18 01:26:00,
2013-02-17 20:31:00,22.4,13.8,30.20,WSW,238,0.0,2.0,69,0.00,,---,0.00,VWS V14.00,2013-02-18 01:31:00,
2013-02-17 20:36:00,22.3,13.7,30.20,WSW,238,0.0,2.0,69,0.00,,---,0.00,VWS V14.00,2013-02-18 01:36:00,
2013-02-17 20:41:00,22.2,13.6,30.20,WSW,238,0.0,2.0,69,0.00,,---,0.00,VWS V14.00,2013-02-18 01:41:00,
2013-02-17 20:46:00,22.2,13.6,30.20,WSW,238,0.0,2.0,69,0.00,,---,0.00,VWS V14.00,2013-02-18 01:46:00,
2013-02-17 20:51:00,22.1,13.5,30.21,WSW,238,0.0,2.0,69,0.00,,---,0.00,VWS V14.00,2013-02-18 01:51:00,
2013-02-17 20:56:00,22.1,13.5,30.21,WSW,238,0.0,2.0,69,0.00,,---,0.00,VWS V14.00,2013-02-18 01:56:00,
2013-02-17 21:01:00,22.0,13.7,30.21,WSW,238,0.0,1.0,70,0.00,,---,0.00,VWS V14.00,2013-02-18 02:01:00,
2013-02-17 21:06:00,22.0,13.7,30.21,WSW,238,0.0,2.0,70,0.00,,---,0.00,VWS V14.00,2013-02-18 02:06:00,
2013-02-17 21:11:00,21.9,13.6,30.20,WSW,238,0.0,2.0,70,0.00,,---,0.00,VWS V14.00,2013-02-18 02:11:00,
2013-02-17 21:16:00,21.9,14.0,30.20,WSW,238,0.0,2.0,71,0.00,,---,0.00,VWS V14.00,2013-02-18 02:16:00,
2013-02-17 21:21:00,21.8,13.9,30.20,WSW,238,0.0,2.0,71,0.00,,---,0.00,VWS V14.00,2013-02-18 02:21:00,
2013-02-17 21:26:00,21.8,13.9,30.20,WSW,238,0.0,2.0,71,0.00,,---,0.00,VWS V14.00,2013-02-18 02:26:00,
2013-02-17 21:32:00,21.7,14.1,30.20,WSW,238,0.0,0.0,72,0.00,,---,0.00,VWS V14.00,2013-02-18 02:32:00,
2013-02-17 21:37:00,21.7,14.1,30.20,WSW,238,0.0,1.0,72,0.00,,---,0.00,VWS V14.00,2013-02-18 02:37:00,
2013-02-17 21:42:00,21.6,14.0,30.20,WSW,238,0.0,1.0,72,0.00,,---,0.00,VWS V14.00,2013-02-18 02:42:00,
2013-02-17 21:47:00,21.6,14.3,30.21,WSW,239,0.0,1.0,73,0.00,,---,0.00,VWS V14.00,2013-02-18 02:47:00,
2013-02-17 21:52:00,21.5,14.2,30.21,WSW,238,0.0,1.0,73,0.00,,---,0.00,VWS V14.00,2013-02-18 02:52:00,
2013-02-17 21:57:00,21.4,14.1,30.21,WSW,239,0.0,1.0,73,0.00,,---,0.00,VWS V14.00,2013-02-18 02:57:00,
2013-02-17 22:02:00,21.4,14.4,30.21,WSW,238,0.0,0.0,74,0.00,,---,0.00,VWS V14.00,2013-02-18 03:02:00,
2013-02-17 22:07:00,21.3,14.3,30.21,WSW,238,0.0,0.0,74,0.00,,---,0.00,VWS V14.00,2013-02-18 03:07:00,
2013-02-17 22:12:00,21.3,14.3,30.20,WSW,238,0.0,1.0,74,0.00,,---,0.00,VWS V14.00,2013-02-18 03:12:00,
2013-02-17 22:17:00,21.3,14.3,30.20,WSW,238,0.0,1.0,74,0.00,,---,0.00,VWS V14.00,2013-02-18 03:17:00,
2013-02-17 22:22:00,21.3,14.3,30.20,WSW,238,0.0,1.0,74,0.00,,---,0.00,VWS V14.00,2013-02-18 03:22:00,
2013-02-17 22:27:00,21.3,14.6,30.20,WSW,238,0.0,2.0,75,0.00,,---,0.00,VWS V14.00,2013-02-18 03:27:00,
2013-02-17 22:32:00,21.3,14.6,30.20,WSW,238,0.0,0.0,75,0.00,,---,0.00,VWS V14.00,2013-02-18 03:32:00,
2013-02-17 22:37:00,21.2,14.5,30.20,SW,215,0.0,2.0,75,0.00,,---,0.00,VWS V14.00,2013-02-18 03:37:00,
2013-02-17 22:42:00,21.2,14.5,30.20,SW,214,1.0,2.0,75,0.00,,---,0.00,VWS V14.00,2013-02-18 03:42:00,
2013-02-17 22:48:00,21.2,14.5,30.20,SSW,206,0.0,2.0,75,0.00,,---,0.00,VWS V14.00,2013-02-18 03:48:00,
2013-02-17 22:53:00,21.2,14.8,30.20,SSW,202,1.0,2.0,76,0.00,,---,0.00,VWS V14.00,2013-02-18 03:53:00,
2013-02-17 22:58:00,21.2,14.8,30.21,SSW,202,0.0,2.0,76,0.00,,---,0.00,VWS V14.00,2013-02-18 03:58:00,
2013-02-17 23:03:00,21.2,14.8,30.20,SSW,202,0.0,1.0,76,0.00,,---,0.00,VWS V14.00,2013-02-18 04:03:00,
2013-02-17 23:08:00,21.2,15.1,30.20,South,170,0.0,2.0,77,0.00,,---,0.00,VWS V14.00,2013-02-18 04:08:00,
2013-02-17 23:13:00,21.2,15.1,30.20,SSE,166,1.0,2.0,77,0.00,,---,0.00,VWS V14.00,2013-02-18 04:13:00,
2013-02-17 23:18:00,21.2,15.1,30.20,SSE,164,0.0,2.0,77,0.00,,---,0.00,VWS V14.00,2013-02-18 04:18:00,
2013-02-17 23:23:00,21.2,14.8,30.20,SE,142,1.0,4.0,76,0.00,,---,0.00,VWS V14.00,2013-02-18 04:23:00,
2013-02-17 23:28:00,21.1,15.0,30.21,SE,136,1.0,5.0,77,0.00,,---,0.00,VWS V14.00,2013-02-18 04:28:00,
2013-02-17 23:33:00,21.2,15.1,30.20,SE,138,4.0,4.0,77,0.00,,---,0.00,VWS V14.00,2013-02-18 04:33:00,
2013-02-17 23:38:00,21.3,15.2,30.20,ESE,119,1.0,5.0,77,0.00,,---,0.00,VWS V14.00,2013-02-18 04:38:00,
2013-02-17 23:43:00,21.3,15.2,30.20,ESE,120,1.0,5.0,77,0.00,,---,0.00,VWS V14.00,2013-02-18 04:43:00,
2013-02-17 23:48:00,21.4,15.0,30.20,ESE,122,1.0,6.0,76,0.00,,---,0.00,VWS V14.00,2013-02-18 04:48:00,
2013-02-17 23:53:00,21.5,15.1,30.19,ESE,121,0.0,6.0,76,0.00,,---,0.00,VWS V14.00,2013-02-18 04:53:00,
2013-02-17 23:58:00,21.6,15.2,30.20,ESE,122,0.0,6.0,76,0.00,,---,0.00,VWS V14.00,2013-02-18 04:58:00,